K2WX

Buffalo Airport

Buffalo, South Dakota, USA
METAR K2WX 231056Z AUTO 07012KT 15/13 A2984 RMK AO1 SLP085 T01500128
Observed Flight Rules
May-23 @ 10:56 UTC (16 minutes ago)
Wind
70° at 12 knots
Temperatures Readings
Current 15°C / 59°F
Dewpoint 13°C / 55°F
Humidity 88%
Altimeter 29.84" Hg
Pressure 1008.5 hPa
Elevation 915
METAR K2WX 231056Z AUTO 07012KT 15/13 A2984 RMK AO1 SLP085 T01500128
Observed Flight Rules
May-23 @ 10:56 UTC
(16 minutes ago)
Wind
70° at 12 knots
Temperature Dewpoint
15°C / 59°F 13°C / 55°F
Humidity Altimeter Pressure
88% 29.84" Hg 1008.5 hPa